Airfield :
LOGIN :

Register | Disclaimer

   EN    FR    IT 

 










Legend :    VFR   Marginal VFR   IFR   Intensive IFR   Very Intensive IFR
Visi :
Ceiling :
>= 8 km
>= 3000ft
5 to 8 km
1000 to 3000 ft
1500m to 5 km
500 to 1000 ft
800 to 1500m
200 to 500 ft
< 800m
< 200 ft
Symbols :   Thunderstorms  Fog  Heavy snow  Heavy precipitations  Wind > 20 kt
SIGMETs :     Misc.  Thunderstorms  Icing  Turbulence  Mountain Waves  Volcanic Ashes







- Airport Elevation : 2077 ft
- IATA code : FMM


EDJA - Memmingen

CURRENT METAR :
  • 251920Z 26006KT 9999 -SHSN FEW003 SCT009 BKN031 01/00 Q1023

EXPIRED METARs :
  • 251850Z 28009KT 250V310 9999 -SHSN SCT002 BKN025 01/00 Q1023
  • 251820Z 24008KT CAVOK 01/M01 Q1022
  • 251750Z 30007KT 9999 FEW045 02/M01 Q1022
  • 251720Z 27009KT 9999 VCSH FEW010TCU SCT035 BKN088 02/M00 Q1021
  • 251650Z 33007KT 9999 VCSH FEW003 SCT006 BKN140CB 01/01 Q1021

TAF TAF EDJA
Valid from the 25 at 18:00 until the 26 at 03:00 UTC


251700Z 2518/2603 29010G20KT 9999 SCT025
PROB40
TEMPO 2518/2520 32015G30KT 2500 SHSNGS BKN020CB
BECMG 2519/2521 29006KT
PROB30
TEMPO 2520/2601 3500 -SHSNGS SCT014 BKN020CB
No reported NOTAMs for that airfield.



MET'MAP, your aeronautical weather chart ! - Copyright ORBIFLY December 2007 - Disclaimer

ORBIFLY MET'MAP TEAM :

Programming & Development : Alexandra Zaïnal
Concept & Development : Baudouin d'Aumeries
Co-Development & Prog : Marc-Olivier Méhu
Technical & hardware support : Manuel Goepfert

Contact : metmap@orbifly.com




SOURCES & CREDITS :

   NOAA